Adana Incirlik Air Force Base, Turkey

7:48 PM EEST on October 25, 2014 (GMT +0300)
Incirlik Air Base | Change Station
CLOSE
Current Station
Airport
Location: Adana Incirlik AFB,
Elevation: 217 ft
Nearby Weather Stations

Elev 217 ft 37.00 °N, 35.43 °E | Updated 28 minutes ago

Scattered Clouds
Scattered Clouds
72 °F
Feels Like 72 °F
N
2
Wind Variable Wind from South

Today
High -- | Low -- °F
--% Chance of Precip.
Yesterday
High -- | Low -- °F
Precip. -- in
6:55 AM 5:49 PM
Waxing Crescent, 3% visible
Pressure 29.98 in
Visibility 6.2 miles
Clouds Scattered Clouds 3500 ft
Dew Point 61 °F
Humidity 69%
Rainfall 0.00 in
Snow Depth Not available.
UV 0 out of 12
Pollen Not available.
Air Quality Not available.
Flu Activity Not available.
METAR LTAG 251620Z 19002KT 9999 SCT035 22/16 Q1015 NOSIG

More Conditions Fewer Conditions

Pressure 29.98 in
Visibility 6.2 miles
Clouds Scattered Clouds 3500 ft
Dew Point 61 °F
Humidity 69%
Rainfall 0.00 in
Snow Depth Not available.
UV 0 out of 12
Pollen Not available.
Air Quality Not available.
Flu Activity Not available.
METAR LTAG 251620Z 19002KT 9999 SCT035 22/16 Q1015 NOSIG

More Conditions Fewer Conditions

10-Day Weather Forecast

Almanac

Astronomy

Oct. 25, 2014 Rise Set
Actual Time 6:55 AM EEST 5:49 PM EEST
Civil Twilight 6:28 AM EEST 6:15 PM EEST
Nautical Twilight 5:58 AM EEST 6:46 PM EEST
Astronomical Twilight 5:28 AM EEST 7:16 PM EEST
Moon 8:11 AM EEST 6:58 PM EEST
Length of Visible Light 11h 47m
Length of Day
10h 54m
Tomorrow will be 2m 10s shorter.
Waxing Crescent, 3% of the Moon is Illuminated
Today
Waxing Crescent
Oct 30
First Quarter
Nov 6
Full
Nov 14
Last Quarter
Nov 22
New

Today's Extremes

Country Highs Country Lows

Community

WunderPhotos

Upload Photos

1,764,901 photos uploaded!

Nearby

Snow Depth

Not available.

Earthquake Activity

City Distance Mag. Time & Date
No recent earthquake activity has been reported nearby.
Minimum magnitude displayed is 2.5.

Coastal Water Temperatures

Place Temperature
No Stations Reporting

Nearby Weather Stations